sensor_id;sensor_type;location;lat;lon;timestamp;pressure;altitude;pressure_sealevel;temperature;humidity
39275;BME280;24980;48.874;2.332;2023-05-29T00:01:54;101332.02;;;26.41;40.19
39275;BME280;24980;48.874;2.332;2023-05-29T00:04:22;101330.91;;;26.40;40.24
39275;BME280;24980;48.874;2.332;2023-05-29T00:06:53;101325.81;;;26.40;40.28
39275;BME280;24980;48.874;2.332;2023-05-29T00:09:32;101325.52;;;26.39;40.32
39275;BME280;24980;48.874;2.332;2023-05-29T00:12:00;101331.05;;;26.39;40.33
39275;BME280;24980;48.874;2.332;2023-05-29T00:14:26;101331.41;;;26.38;40.33
39275;BME280;24980;48.874;2.332;2023-05-29T00:16:55;101337.53;;;26.37;40.33
39275;BME280;24980;48.874;2.332;2023-05-29T00:19:28;101336.57;;;26.36;40.32
39275;BME280;24980;48.874;2.332;2023-05-29T00:22:00;101336.33;;;26.35;40.33
39275;BME280;24980;48.874;2.332;2023-05-29T00:24:26;101336.92;;;26.34;40.32
39275;BME280;24980;48.874;2.332;2023-05-29T00:26:56;101338.64;;;26.33;40.31
39275;BME280;24980;48.874;2.332;2023-05-29T00:29:26;101339.54;;;26.32;40.32
39275;BME280;24980;48.874;2.332;2023-05-29T00:31:57;101336.84;;;26.31;40.30
39275;BME280;24980;48.874;2.332;2023-05-29T00:34:27;101342.79;;;26.31;40.29
39275;BME280;24980;48.874;2.332;2023-05-29T00:36:59;101344.29;;;26.29;40.28
39275;BME280;24980;48.874;2.332;2023-05-29T00:39:27;101335.80;;;26.28;40.27
39275;BME280;24980;48.874;2.332;2023-05-29T00:44:28;101334.76;;;26.26;40.25
39275;BME280;24980;48.874;2.332;2023-05-29T00:46:59;101334.17;;;26.25;40.24
39275;BME280;24980;48.874;2.332;2023-05-29T00:49:28;101334.78;;;26.24;40.23
39275;BME280;24980;48.874;2.332;2023-05-29T00:51:58;101332.84;;;26.24;40.24
39275;BME280;24980;48.874;2.332;2023-05-29T00:54:29;101328.12;;;26.23;40.23
39275;BME280;24980;48.874;2.332;2023-05-29T00:56:59;101331.36;;;26.22;40.23
39275;BME280;24980;48.874;2.332;2023-05-29T00:59:32;101337.99;;;26.22;40.23
39275;BME280;24980;48.874;2.332;2023-05-29T01:02:00;101339.28;;;26.21;40.23
39275;BME280;24980;48.874;2.332;2023-05-29T01:04:29;101330.45;;;26.20;40.21
39275;BME280;24980;48.874;2.332;2023-05-29T01:07:00;101324.62;;;26.20;40.20
39275;BME280;24980;48.874;2.332;2023-05-29T01:09:31;101324.22;;;26.18;40.20
39275;BME280;24980;48.874;2.332;2023-05-29T01:15:13;101320.35;;;26.15;40.17
39275;BME280;24980;48.874;2.332;2023-05-29T01:17:11;101322.40;;;26.15;40.15
39275;BME280;24980;48.874;2.332;2023-05-29T01:19:59;101322.66;;;26.14;40.15
39275;BME280;24980;48.874;2.332;2023-05-29T01:22:21;101319.65;;;26.13;40.14
39275;BME280;24980;48.874;2.332;2023-05-29T01:27:10;101332.41;;;26.12;40.15
39275;BME280;24980;48.874;2.332;2023-05-29T01:29:39;101331.39;;;26.12;40.16
39275;BME280;24980;48.874;2.332;2023-05-29T01:32:07;101330.98;;;26.11;40.16
39275;BME280;24980;48.874;2.332;2023-05-29T01:34:38;101333.48;;;26.10;40.17
39275;BME280;24980;48.874;2.332;2023-05-29T01:37:16;101335.72;;;26.09;40.18
39275;BME280;24980;48.874;2.332;2023-05-29T01:39:39;101333.08;;;26.09;40.22
39275;BME280;24980;48.874;2.332;2023-05-29T01:42:10;101335.72;;;26.08;40.26
39275;BME280;24980;48.874;2.332;2023-05-29T01:44:42;101335.46;;;26.08;40.30
39275;BME280;24980;48.874;2.332;2023-05-29T01:47:11;101340.39;;;26.08;40.32
39275;BME280;24980;48.874;2.332;2023-05-29T01:49:48;101335.56;;;26.08;40.34
39275;BME280;24980;48.874;2.332;2023-05-29T01:52:12;101337.09;;;26.08;40.36
39275;BME280;24980;48.874;2.332;2023-05-29T01:54:42;101336.53;;;26.07;40.36
39275;BME280;24980;48.874;2.332;2023-05-29T01:57:13;101337.64;;;26.07;40.35
39275;BME280;24980;48.874;2.332;2023-05-29T01:59:43;101338.33;;;26.06;40.34
39275;BME280;24980;48.874;2.332;2023-05-29T02:02:13;101336.64;;;26.05;40.33
39275;BME280;24980;48.874;2.332;2023-05-29T02:04:43;101333.67;;;26.04;40.31
39275;BME280;24980;48.874;2.332;2023-05-29T02:07:13;101333.55;;;26.03;40.30
39275;BME280;24980;48.874;2.332;2023-05-29T02:09:43;101333.98;;;26.03;40.29
39275;BME280;24980;48.874;2.332;2023-05-29T02:12:13;101333.40;;;26.02;40.29
39275;BME280;24980;48.874;2.332;2023-05-29T02:14:43;101337.32;;;26.01;40.28
39275;BME280;24980;48.874;2.332;2023-05-29T02:17:13;101335.83;;;26.00;40.27
39275;BME280;24980;48.874;2.332;2023-05-29T02:19:43;101336.70;;;25.99;40.26
39275;BME280;24980;48.874;2.332;2023-05-29T02:22:14;101331.11;;;25.98;40.25
39275;BME280;24980;48.874;2.332;2023-05-29T02:24:44;101333.52;;;25.97;40.24
39275;BME280;24980;48.874;2.332;2023-05-29T02:27:14;101332.02;;;25.96;40.23
39275;BME280;24980;48.874;2.332;2023-05-29T02:29:47;101336.86;;;25.95;40.23
39275;BME280;24980;48.874;2.332;2023-05-29T02:32:16;101337.46;;;25.95;40.22
39275;BME280;24980;48.874;2.332;2023-05-29T02:34:45;101336.06;;;25.93;40.21
39275;BME280;24980;48.874;2.332;2023-05-29T02:37:15;101341.00;;;25.93;40.20
39275;BME280;24980;48.874;2.332;2023-05-29T02:39:49;101339.23;;;25.92;40.20
39275;BME280;24980;48.874;2.332;2023-05-29T02:42:16;101336.52;;;25.91;40.21
39275;BME280;24980;48.874;2.332;2023-05-29T02:44:46;101342.07;;;25.91;40.21
39275;BME280;24980;48.874;2.332;2023-05-29T02:47:16;101342.08;;;25.90;40.21
39275;BME280;24980;48.874;2.332;2023-05-29T02:49:46;101335.56;;;25.89;40.21
39275;BME280;24980;48.874;2.332;2023-05-29T02:52:17;101337.09;;;25.88;40.22
39275;BME280;24980;48.874;2.332;2023-05-29T02:54:47;101341.13;;;25.87;40.21
39275;BME280;24980;48.874;2.332;2023-05-29T02:57:17;101343.52;;;25.86;40.22
39275;BME280;24980;48.874;2.332;2023-05-29T02:59:47;101337.41;;;25.86;40.22
39275;BME280;24980;48.874;2.332;2023-05-29T03:02:18;101340.61;;;25.84;40.22
39275;BME280;24980;48.874;2.332;2023-05-29T03:04:47;101342.40;;;25.83;40.21
39275;BME280;24980;48.874;2.332;2023-05-29T03:07:17;101348.27;;;25.83;40.22
39275;BME280;24980;48.874;2.332;2023-05-29T03:09:47;101348.78;;;25.82;40.22
39275;BME280;24980;48.874;2.332;2023-05-29T03:12:33;101354.17;;;25.81;40.23
39275;BME280;24980;48.874;2.332;2023-05-29T03:14:48;101355.19;;;25.81;40.23
39275;BME280;24980;48.874;2.332;2023-05-29T03:17:19;101354.87;;;25.80;40.24
39275;BME280;24980;48.874;2.332;2023-05-29T03:19:49;101359.03;;;25.80;40.24
39275;BME280;24980;48.874;2.332;2023-05-29T03:22:19;101359.42;;;25.78;40.23
39275;BME280;24980;48.874;2.332;2023-05-29T03:24:51;101361.90;;;25.77;40.24
39275;BME280;24980;48.874;2.332;2023-05-29T03:27:20;101359.09;;;25.77;40.24
39275;BME280;24980;48.874;2.332;2023-05-29T03:29:50;101369.21;;;25.76;40.25
39275;BME280;24980;48.874;2.332;2023-05-29T03:32:20;101363.36;;;25.75;40.27
39275;BME280;24980;48.874;2.332;2023-05-29T03:34:50;101369.09;;;25.74;40.28
39275;BME280;24980;48.874;2.332;2023-05-29T03:37:20;101373.85;;;25.74;40.29
39275;BME280;24980;48.874;2.332;2023-05-29T03:39:51;101369.61;;;25.73;40.30
39275;BME280;24980;48.874;2.332;2023-05-29T03:42:21;101368.27;;;25.72;40.30
39275;BME280;24980;48.874;2.332;2023-05-29T03:44:51;101370.68;;;25.72;40.31
39275;BME280;24980;48.874;2.332;2023-05-29T03:47:27;101369.75;;;25.71;40.31
39275;BME280;24980;48.874;2.332;2023-05-29T03:49:51;101373.67;;;25.70;40.33
39275;BME280;24980;48.874;2.332;2023-05-29T03:52:21;101378.61;;;25.69;40.33
39275;BME280;24980;48.874;2.332;2023-05-29T03:54:52;101383.39;;;25.68;40.33
39275;BME280;24980;48.874;2.332;2023-05-29T03:57:25;101377.80;;;25.67;40.34
39275;BME280;24980;48.874;2.332;2023-05-29T03:59:57;101381.12;;;25.67;40.35
39275;BME280;24980;48.874;2.332;2023-05-29T04:02:23;101384.86;;;25.67;40.38
39275;BME280;24980;48.874;2.332;2023-05-29T04:04:53;101382.66;;;25.66;40.44
39275;BME280;24980;48.874;2.332;2023-05-29T04:07:24;101386.81;;;25.66;40.47
39275;BME280;24980;48.874;2.332;2023-05-29T04:09:56;101397.27;;;25.66;40.50
39275;BME280;24980;48.874;2.332;2023-05-29T04:12:25;101401.30;;;25.65;40.51
39275;BME280;24980;48.874;2.332;2023-05-29T04:14:56;101401.80;;;25.65;40.54
39275;BME280;24980;48.874;2.332;2023-05-29T04:17:36;101413.52;;;25.65;40.54
39275;BME280;24980;48.874;2.332;2023-05-29T04:19:57;101412.94;;;25.64;40.56
39275;BME280;24980;48.874;2.332;2023-05-29T04:22:26;101412.27;;;25.63;40.56
39275;BME280;24980;48.874;2.332;2023-05-29T04:24:56;101416.17;;;25.62;40.55
39275;BME280;24980;48.874;2.332;2023-05-29T04:27:26;101419.45;;;25.61;40.54
39275;BME280;24980;48.874;2.332;2023-05-29T04:29:56;101421.66;;;25.60;40.54
39275;BME280;24980;48.874;2.332;2023-05-29T04:32:26;101422.56;;;25.59;40.52
39275;BME280;24980;48.874;2.332;2023-05-29T04:34:56;101422.06;;;25.58;40.50
39275;BME280;24980;48.874;2.332;2023-05-29T04:37:26;101426.91;;;25.57;40.55
39275;BME280;24980;48.874;2.332;2023-05-29T04:39:59;101431.11;;;25.56;40.49
39275;BME280;24980;48.874;2.332;2023-05-29T04:42:27;101435.87;;;25.55;40.47
39275;BME280;24980;48.874;2.332;2023-05-29T04:44:57;101434.86;;;25.54;40.47
39275;BME280;24980;48.874;2.332;2023-05-29T04:47:27;101445.90;;;25.53;40.47
39275;BME280;24980;48.874;2.332;2023-05-29T04:50:08;101445.52;;;25.52;40.48
39275;BME280;24980;48.874;2.332;2023-05-29T04:52:28;101442.55;;;25.51;40.48
39275;BME280;24980;48.874;2.332;2023-05-29T04:54:58;101443.58;;;25.50;40.48
39275;BME280;24980;48.874;2.332;2023-05-29T04:57:28;101444.19;;;25.49;40.48
39275;BME280;24980;48.874;2.332;2023-05-29T04:59:58;101446.31;;;25.48;40.49
39275;BME280;24980;48.874;2.332;2023-05-29T05:02:28;101451.41;;;25.47;40.50
39275;BME280;24980;48.874;2.332;2023-05-29T05:04:58;101445.09;;;25.46;40.50
39275;BME280;24980;48.874;2.332;2023-05-29T05:07:28;101449.93;;;25.46;40.51
39275;BME280;24980;48.874;2.332;2023-05-29T05:09:58;101450.55;;;25.43;40.51
39275;BME280;24980;48.874;2.332;2023-05-29T05:12:28;101450.92;;;25.42;40.51
39275;BME280;24980;48.874;2.332;2023-05-29T05:14:58;101449.58;;;25.41;40.52
39275;BME280;24980;48.874;2.332;2023-05-29T05:17:28;101458.75;;;25.40;40.53
39275;BME280;24980;48.874;2.332;2023-05-29T05:19:59;101455.95;;;25.40;40.53
39275;BME280;24980;48.874;2.332;2023-05-29T05:22:30;101462.70;;;25.39;40.55
39275;BME280;24980;48.874;2.332;2023-05-29T05:25:00;101465.08;;;25.38;40.56
39275;BME280;24980;48.874;2.332;2023-05-29T05:27:34;101467.45;;;25.39;40.61
39275;BME280;24980;48.874;2.332;2023-05-29T05:30:02;101467.38;;;25.37;40.65
39275;BME280;24980;48.874;2.332;2023-05-29T05:32:32;101468.57;;;25.37;40.68
39275;BME280;24980;48.874;2.332;2023-05-29T05:35:02;101473.88;;;25.36;40.71
39275;BME280;24980;48.874;2.332;2023-05-29T05:37:32;101475.06;;;25.34;40.73
39275;BME280;24980;48.874;2.332;2023-05-29T05:40:02;101474.09;;;25.33;40.73
39275;BME280;24980;48.874;2.332;2023-05-29T05:42:35;101474.19;;;25.32;40.73
39275;BME280;24980;48.874;2.332;2023-05-29T05:45:03;101474.20;;;25.31;40.73
39275;BME280;24980;48.874;2.332;2023-05-29T05:47:33;101477.38;;;25.30;40.73
39275;BME280;24980;48.874;2.332;2023-05-29T05:50:05;101482.12;;;25.29;40.74
39275;BME280;24980;48.874;2.332;2023-05-29T05:52:34;101486.38;;;25.28;40.74
39275;BME280;24980;48.874;2.332;2023-05-29T05:55:17;101486.25;;;25.26;40.75
39275;BME280;24980;48.874;2.332;2023-05-29T05:57:41;101485.67;;;25.25;40.78
39275;BME280;24980;48.874;2.332;2023-05-29T06:02:39;101484.92;;;25.24;40.78
39275;BME280;24980;48.874;2.332;2023-05-29T06:05:07;101484.19;;;25.23;40.81
39275;BME280;24980;48.874;2.332;2023-05-29T06:07:37;101484.95;;;25.22;40.82
39275;BME280;24980;48.874;2.332;2023-05-29T06:10:07;101489.63;;;25.21;40.84
39275;BME280;24980;48.874;2.332;2023-05-29T06:12:37;101492.12;;;25.20;40.87
39275;BME280;24980;48.874;2.332;2023-05-29T06:15:09;101497.82;;;25.20;40.92
39275;BME280;24980;48.874;2.332;2023-05-29T06:17:38;101497.30;;;25.20;40.97
39275;BME280;24980;48.874;2.332;2023-05-29T06:20:13;101497.91;;;25.20;41.04
39275;BME280;24980;48.874;2.332;2023-05-29T06:22:38;101504.19;;;25.18;41.10
39275;BME280;24980;48.874;2.332;2023-05-29T06:25:08;101496.56;;;25.18;41.13
39275;BME280;24980;48.874;2.332;2023-05-29T06:27:39;101502.53;;;25.21;41.15
39275;BME280;24980;48.874;2.332;2023-05-29T06:30:10;101514.82;;;25.22;41.19
39275;BME280;24980;48.874;2.332;2023-05-29T06:32:39;101512.95;;;25.22;41.24
39275;BME280;24980;48.874;2.332;2023-05-29T06:35:15;101520.20;;;25.24;41.27
39275;BME280;24980;48.874;2.332;2023-05-29T06:37:45;101522.32;;;25.26;41.29
39275;BME280;24980;48.874;2.332;2023-05-29T06:40:10;101522.06;;;25.27;41.32
39275;BME280;24980;48.874;2.332;2023-05-29T06:42:39;101518.08;;;25.26;41.35
39275;BME280;24980;48.874;2.332;2023-05-29T06:45:10;101522.66;;;25.25;41.37
39275;BME280;24980;48.874;2.332;2023-05-29T06:47:40;101523.64;;;25.23;41.42
39275;BME280;24980;48.874;2.332;2023-05-29T06:50:10;101528.48;;;25.21;41.45
39275;BME280;24980;48.874;2.332;2023-05-29T06:52:40;101523.02;;;25.20;41.48
39275;BME280;24980;48.874;2.332;2023-05-29T06:55:11;101525.66;;;25.18;41.51
39275;BME280;24980;48.874;2.332;2023-05-29T06:57:41;101525.66;;;25.18;41.56
39275;BME280;24980;48.874;2.332;2023-05-29T07:00:11;101528.15;;;25.21;41.56
39275;BME280;24980;48.874;2.332;2023-05-29T07:02:42;101533.48;;;25.23;41.58
39275;BME280;24980;48.874;2.332;2023-05-29T07:05:12;101528.31;;;25.23;41.60
39275;BME280;24980;48.874;2.332;2023-05-29T07:07:43;101528.14;;;25.22;41.63
39275;BME280;24980;48.874;2.332;2023-05-29T07:10:16;101529.68;;;25.21;41.67
39275;BME280;24980;48.874;2.332;2023-05-29T07:12:43;101524.55;;;25.20;41.71
39275;BME280;24980;48.874;2.332;2023-05-29T07:15:14;101524.72;;;25.18;41.75
39275;BME280;24980;48.874;2.332;2023-05-29T07:17:44;101529.31;;;25.17;41.79
39275;BME280;24980;48.874;2.332;2023-05-29T07:20:14;101528.24;;;25.16;41.82
39275;BME280;24980;48.874;2.332;2023-05-29T07:22:44;101531.64;;;25.14;41.84
39275;BME280;24980;48.874;2.332;2023-05-29T07:25:14;101529.82;;;25.13;41.86
39275;BME280;24980;48.874;2.332;2023-05-29T07:27:44;101534.06;;;25.12;41.87
39275;BME280;24980;48.874;2.332;2023-05-29T07:30:14;101535.81;;;25.10;41.89
39275;BME280;24980;48.874;2.332;2023-05-29T07:32:44;101538.36;;;25.09;41.90
39275;BME280;24980;48.874;2.332;2023-05-29T07:35:14;101538.45;;;25.08;41.91
39275;BME280;24980;48.874;2.332;2023-05-29T07:37:44;101536.41;;;25.08;41.92
39275;BME280;24980;48.874;2.332;2023-05-29T07:40:15;101533.06;;;25.07;41.92
39275;BME280;24980;48.874;2.332;2023-05-29T07:42:45;101536.88;;;25.06;41.94
39275;BME280;24980;48.874;2.332;2023-05-29T07:47:46;101534.68;;;25.05;41.99
39275;BME280;24980;48.874;2.332;2023-05-29T07:50:16;101541.55;;;25.05;42.01
39275;BME280;24980;48.874;2.332;2023-05-29T07:52:51;101541.00;;;25.03;42.03
39275;BME280;24980;48.874;2.332;2023-05-29T07:55:17;101542.53;;;25.02;42.05
39275;BME280;24980;48.874;2.332;2023-05-29T07:57:47;101537.78;;;25.01;42.06
39275;BME280;24980;48.874;2.332;2023-05-29T08:00:17;101530.87;;;25.00;42.10
39275;BME280;24980;48.874;2.332;2023-05-29T08:02:49;101537.91;;;25.00;42.12
39275;BME280;24980;48.874;2.332;2023-05-29T08:05:18;101528.34;;;24.98;42.13
39275;BME280;24980;48.874;2.332;2023-05-29T08:07:48;101532.61;;;24.97;42.16
39275;BME280;24980;48.874;2.332;2023-05-29T08:10:18;101532.78;;;24.97;42.16
39275;BME280;24980;48.874;2.332;2023-05-29T08:12:48;101534.99;;;24.96;42.16
39275;BME280;24980;48.874;2.332;2023-05-29T08:15:19;101540.77;;;24.95;42.17
39275;BME280;24980;48.874;2.332;2023-05-29T08:17:57;101541.70;;;24.95;42.18
39275;BME280;24980;48.874;2.332;2023-05-29T08:20:19;101533.42;;;24.94;42.19
39275;BME280;24980;48.874;2.332;2023-05-29T08:22:49;101533.86;;;24.92;42.19
39275;BME280;24980;48.874;2.332;2023-05-29T08:25:19;101531.57;;;24.92;42.19
39275;BME280;24980;48.874;2.332;2023-05-29T08:27:49;101542.88;;;24.91;42.20
39275;BME280;24980;48.874;2.332;2023-05-29T08:30:19;101540.77;;;24.91;42.20
39275;BME280;24980;48.874;2.332;2023-05-29T08:32:49;101549.08;;;24.91;42.21
39275;BME280;24980;48.874;2.332;2023-05-29T08:35:19;101546.03;;;24.90;42.21
39275;BME280;24980;48.874;2.332;2023-05-29T08:37:50;101546.20;;;24.89;42.22
39275;BME280;24980;48.874;2.332;2023-05-29T08:40:20;101552.73;;;24.89;42.23
39275;BME280;24980;48.874;2.332;2023-05-29T08:42:59;101547.77;;;24.88;42.24
39275;BME280;24980;48.874;2.332;2023-05-29T08:45:22;101540.22;;;24.88;42.26
39275;BME280;24980;48.874;2.332;2023-05-29T08:50:24;101545.98;;;24.88;42.31
39275;BME280;24980;48.874;2.332;2023-05-29T08:52:52;101540.30;;;24.87;42.31
39275;BME280;24980;48.874;2.332;2023-05-29T08:55:22;101536.58;;;24.87;42.32
39275;BME280;24980;48.874;2.332;2023-05-29T08:57:52;101533.09;;;24.87;42.33
39275;BME280;24980;48.874;2.332;2023-05-29T09:00:24;101537.09;;;24.86;42.33
39275;BME280;24980;48.874;2.332;2023-05-29T09:02:52;101539.80;;;24.86;42.34
39275;BME280;24980;48.874;2.332;2023-05-29T09:05:22;101540.31;;;24.85;42.34
39275;BME280;24980;48.874;2.332;2023-05-29T09:07:56;101541.84;;;24.85;42.34
39275;BME280;24980;48.874;2.332;2023-05-29T09:10:23;101541.95;;;24.85;42.34
39275;BME280;24980;48.874;2.332;2023-05-29T09:12:53;101540.34;;;24.84;42.34
39275;BME280;24980;48.874;2.332;2023-05-29T09:15:23;101540.44;;;24.83;42.35
39275;BME280;24980;48.874;2.332;2023-05-29T09:17:56;101539.08;;;24.83;42.35
39275;BME280;24980;48.874;2.332;2023-05-29T09:20:25;101548.08;;;24.83;42.36
39275;BME280;24980;48.874;2.332;2023-05-29T09:25:26;101549.09;;;24.83;42.36
39275;BME280;24980;48.874;2.332;2023-05-29T09:28:02;101549.09;;;24.83;42.35
39275;BME280;24980;48.874;2.332;2023-05-29T09:30:43;101543.41;;;24.84;42.36
39275;BME280;24980;48.874;2.332;2023-05-29T09:32:58;101542.73;;;24.83;42.35
39275;BME280;24980;48.874;2.332;2023-05-29T09:35:35;101546.21;;;24.82;42.36
39275;BME280;24980;48.874;2.332;2023-05-29T09:37:58;101545.53;;;24.83;42.36
39275;BME280;24980;48.874;2.332;2023-05-29T09:40:36;101541.12;;;24.83;42.35
39275;BME280;24980;48.874;2.332;2023-05-29T09:43:15;101551.30;;;24.83;42.35
39275;BME280;24980;48.874;2.332;2023-05-29T09:45:29;101543.75;;;24.83;42.36
39275;BME280;24980;48.874;2.332;2023-05-29T09:48:00;101535.69;;;24.84;42.35
39275;BME280;24980;48.874;2.332;2023-05-29T09:50:30;101533.05;;;24.85;42.35
39275;BME280;24980;48.874;2.332;2023-05-29T09:53:02;101528.56;;;24.90;42.32
39275;BME280;24980;48.874;2.332;2023-05-29T09:55:38;101532.88;;;24.96;42.29
39275;BME280;24980;48.874;2.332;2023-05-29T09:58:03;101526.88;;;25.01;42.29
39275;BME280;24980;48.874;2.332;2023-05-29T10:00:32;101528.98;;;25.07;42.28
39275;BME280;24980;48.874;2.332;2023-05-29T10:03:02;101536.52;;;25.13;42.27
39275;BME280;24980;48.874;2.332;2023-05-29T10:05:32;101536.05;;;25.15;42.29
39275;BME280;24980;48.874;2.332;2023-05-29T10:08:03;101531.39;;;25.15;42.31
39275;BME280;24980;48.874;2.332;2023-05-29T10:10:33;101534.53;;;25.14;42.33
39275;BME280;24980;48.874;2.332;2023-05-29T10:13:05;101533.30;;;25.14;42.36
39275;BME280;24980;48.874;2.332;2023-05-29T10:15:35;101529.14;;;25.12;42.38
39275;BME280;24980;48.874;2.332;2023-05-29T10:18:10;101533.90;;;25.12;42.39
39275;BME280;24980;48.874;2.332;2023-05-29T10:20:36;101521.85;;;25.12;42.40
39275;BME280;24980;48.874;2.332;2023-05-29T10:23:06;101521.77;;;25.12;42.41
39275;BME280;24980;48.874;2.332;2023-05-29T10:25:38;101524.06;;;25.12;42.42
39275;BME280;24980;48.874;2.332;2023-05-29T10:28:14;101519.77;;;25.11;42.43
39275;BME280;24980;48.874;2.332;2023-05-29T10:30:56;101516.59;;;25.11;42.43
39275;BME280;24980;48.874;2.332;2023-05-29T10:35:44;101513.95;;;25.13;42.42
39275;BME280;24980;48.874;2.332;2023-05-29T10:38:12;101523.03;;;25.14;42.42
39275;BME280;24980;48.874;2.332;2023-05-29T10:40:41;101515.27;;;25.15;42.43
39275;BME280;24980;48.874;2.332;2023-05-29T10:43:33;101518.91;;;25.16;42.44
39275;BME280;24980;48.874;2.332;2023-05-29T10:45:49;101518.48;;;25.17;42.43
39275;BME280;24980;48.874;2.332;2023-05-29T10:50:47;101514.20;;;25.18;42.44
39275;BME280;24980;48.874;2.332;2023-05-29T10:53:17;101518.52;;;25.20;42.45
39275;BME280;24980;48.874;2.332;2023-05-29T10:55:52;101518.65;;;25.21;42.50
39275;BME280;24980;48.874;2.332;2023-05-29T10:58:27;101508.55;;;25.22;42.56
39275;BME280;24980;48.874;2.332;2023-05-29T11:00:50;101504.59;;;25.24;42.58
39275;BME280;24980;48.874;2.332;2023-05-29T11:03:20;101509.77;;;25.26;42.60
39275;BME280;24980;48.874;2.332;2023-05-29T11:05:58;101508.48;;;25.27;42.61
39275;BME280;24980;48.874;2.332;2023-05-29T11:08:16;101503.19;;;25.28;42.61
39275;BME280;24980;48.874;2.332;2023-05-29T11:10:57;101502.92;;;25.28;42.61
39275;BME280;24980;48.874;2.332;2023-05-29T11:13:33;101493.16;;;25.29;42.60
39275;BME280;24980;48.874;2.332;2023-05-29T11:15:47;101494.94;;;25.30;42.60
39275;BME280;24980;48.874;2.332;2023-05-29T11:18:20;101499.06;;;25.30;42.59
39275;BME280;24980;48.874;2.332;2023-05-29T11:20:55;101497.02;;;25.31;42.58
39275;BME280;24980;48.874;2.332;2023-05-29T11:23:21;101495.91;;;25.32;42.58
39275;BME280;24980;48.874;2.332;2023-05-29T11:25:51;101500.83;;;25.33;42.58
39275;BME280;24980;48.874;2.332;2023-05-29T11:28:26;101497.94;;;25.33;42.57
39275;BME280;24980;48.874;2.332;2023-05-29T11:30:49;101495.61;;;25.34;42.57
39275;BME280;24980;48.874;2.332;2023-05-29T11:33:23;101504.17;;;25.35;42.57
39275;BME280;24980;48.874;2.332;2023-05-29T11:35:58;101492.88;;;25.35;42.57
39275;BME280;24980;48.874;2.332;2023-05-29T11:38:20;101486.94;;;25.36;42.57
39275;BME280;24980;48.874;2.332;2023-05-29T11:40:52;101493.09;;;25.37;42.56
39275;BME280;24980;48.874;2.332;2023-05-29T11:43:22;101492.66;;;25.38;42.56
39275;BME280;24980;48.874;2.332;2023-05-29T11:45:52;101486.55;;;25.38;42.57
39275;BME280;24980;48.874;2.332;2023-05-29T11:48:22;101485.19;;;25.39;42.57
39275;BME280;24980;48.874;2.332;2023-05-29T11:50:53;101486.33;;;25.40;42.61
39275;BME280;24980;48.874;2.332;2023-05-29T11:53:25;101480.12;;;25.41;42.59
39275;BME280;24980;48.874;2.332;2023-05-29T11:56:08;101488.23;;;25.43;42.60
39275;BME280;24980;48.874;2.332;2023-05-29T11:58:29;101484.41;;;25.44;42.60
39275;BME280;24980;48.874;2.332;2023-05-29T12:00:56;101483.80;;;25.45;42.60
39275;BME280;24980;48.874;2.332;2023-05-29T12:03:26;101479.52;;;25.46;42.61
39275;BME280;24980;48.874;2.332;2023-05-29T12:05:58;101485.95;;;25.47;42.61
39275;BME280;24980;48.874;2.332;2023-05-29T12:08:26;101476.02;;;25.49;42.62
39275;BME280;24980;48.874;2.332;2023-05-29T12:11:02;101479.75;;;25.49;42.63
39275;BME280;24980;48.874;2.332;2023-05-29T12:13:28;101476.00;;;25.51;42.64
39275;BME280;24980;48.874;2.332;2023-05-29T12:16:00;101472.09;;;25.52;42.64
39275;BME280;24980;48.874;2.332;2023-05-29T12:18:28;101483.59;;;25.53;42.64
39275;BME280;24980;48.874;2.332;2023-05-29T12:21:02;101468.55;;;25.54;42.64
39275;BME280;24980;48.874;2.332;2023-05-29T12:23:29;101475.42;;;25.55;42.66
39275;BME280;24980;48.874;2.332;2023-05-29T12:26:00;101466.46;;;25.57;42.66
39275;BME280;24980;48.874;2.332;2023-05-29T12:28:30;101473.84;;;25.58;42.65
39275;BME280;24980;48.874;2.332;2023-05-29T12:31:00;101457.38;;;25.58;42.65
39275;BME280;24980;48.874;2.332;2023-05-29T12:33:34;101459.35;;;25.60;42.65
39275;BME280;24980;48.874;2.332;2023-05-29T12:36:01;101469.02;;;25.62;42.65
39275;BME280;24980;48.874;2.332;2023-05-29T12:38:32;101456.16;;;25.63;42.65
39275;BME280;24980;48.874;2.332;2023-05-29T12:41:02;101462.00;;;25.64;42.65
39275;BME280;24980;48.874;2.332;2023-05-29T12:43:32;101470.73;;;25.65;42.65
39275;BME280;24980;48.874;2.332;2023-05-29T12:46:05;101468.41;;;25.66;42.66
39275;BME280;24980;48.874;2.332;2023-05-29T12:48:38;101474.59;;;25.67;42.66
39275;BME280;24980;48.874;2.332;2023-05-29T12:51:05;101467.03;;;25.68;42.67
39275;BME280;24980;48.874;2.332;2023-05-29T12:53:33;101462.23;;;25.69;42.66
39275;BME280;24980;48.874;2.332;2023-05-29T12:56:04;101461.38;;;25.70;42.66
39275;BME280;24980;48.874;2.332;2023-05-29T12:58:34;101457.72;;;25.71;42.65
39275;BME280;24980;48.874;2.332;2023-05-29T13:01:04;101462.43;;;25.72;42.66
39275;BME280;24980;48.874;2.332;2023-05-29T13:03:34;101466.66;;;25.73;42.65
39275;BME280;24980;48.874;2.332;2023-05-29T13:06:04;101460.62;;;25.74;42.65
39275;BME280;24980;48.874;2.332;2023-05-29T13:08:35;101458.37;;;25.76;42.65
39275;BME280;24980;48.874;2.332;2023-05-29T13:11:05;101466.17;;;25.77;42.66
39275;BME280;24980;48.874;2.332;2023-05-29T13:13:35;101463.74;;;25.79;42.70
39275;BME280;24980;48.874;2.332;2023-05-29T13:16:05;101458.38;;;25.81;42.71
39275;BME280;24980;48.874;2.332;2023-05-29T13:18:36;101459.34;;;25.82;42.70
39275;BME280;24980;48.874;2.332;2023-05-29T13:21:06;101464.51;;;25.84;42.69
39275;BME280;24980;48.874;2.332;2023-05-29T13:23:36;101465.73;;;25.85;42.68
39275;BME280;24980;48.874;2.332;2023-05-29T13:26:06;101461.31;;;25.87;42.66
39275;BME280;24980;48.874;2.332;2023-05-29T13:28:36;101459.91;;;25.88;42.65